createdAt,value
2023-04-23T00:02:12.413Z,99869.00
2023-04-23T00:04:39.994Z,99866.00
2023-04-23T00:07:07.293Z,99862.66
2023-04-23T00:09:34.872Z,99861.09
2023-04-23T00:12:02.423Z,99855.03
2023-04-23T00:14:29.480Z,99857.88
2023-04-23T00:16:56.652Z,99860.88
2023-04-23T00:19:23.973Z,99858.34
2023-04-23T00:21:50.864Z,99848.78
2023-04-23T00:24:17.700Z,99850.09
2023-04-23T00:26:44.503Z,99852.06
2023-04-23T00:29:11.360Z,99858.13
2023-04-23T00:31:38.273Z,99852.22
2023-04-23T00:34:05.120Z,99846.28
2023-04-23T00:36:31.901Z,99846.28
2023-04-23T00:38:59.139Z,99854.47
2023-04-23T00:41:27.537Z,99845.31
2023-04-23T00:43:54.577Z,99845.44
2023-04-23T00:46:22.224Z,99846.16
2023-04-23T00:48:49.626Z,99836.78
2023-04-23T00:51:16.859Z,99839.59
2023-04-23T00:53:43.674Z,99827.88
2023-04-23T00:56:10.790Z,99846.03
2023-04-23T00:58:38.082Z,99834.69
2023-04-23T01:01:05.177Z,99821.03
2023-04-23T01:03:32.914Z,99833.09
2023-04-23T01:06:00.107Z,99832.09
2023-04-23T01:08:26.984Z,99824.75
2023-04-23T01:10:54.592Z,99824.44
2023-04-23T01:13:22.624Z,99830.13
2023-04-23T01:15:49.863Z,99821.09
2023-04-23T01:18:16.699Z,99817.28
2023-04-23T01:20:44.035Z,99822.31
2023-04-23T01:23:11.194Z,99818.09
2023-04-23T01:25:38.333Z,99824.28
2023-04-23T01:28:06.847Z,99819.63
2023-04-23T01:30:34.111Z,99824.00
2023-04-23T01:33:02.244Z,99825.81
2023-04-23T01:35:30.196Z,99818.81
2023-04-23T01:37:57.632Z,99823.16
2023-04-23T01:40:24.484Z,99824.84
2023-04-23T01:42:51.364Z,99823.16
2023-04-23T01:45:20.235Z,99825.16
2023-04-23T01:47:50.697Z,99818.09
2023-04-23T01:50:17.704Z,99818.25
2023-04-23T01:52:45.914Z,99820.78
2023-04-23T01:55:12.939Z,99819.25
2023-04-23T01:57:40.234Z,99817.41
2023-04-23T02:00:08.536Z,99820.94
2023-04-23T02:02:42.816Z,99818.41
2023-04-23T02:05:12.532Z,99813.22
2023-04-23T02:07:39.394Z,99808.31
2023-04-23T02:10:07.070Z,99808.13
2023-04-23T02:12:33.881Z,99812.34
2023-04-23T02:15:01.238Z,99807.47
2023-04-23T02:17:28.458Z,99812.13
2023-04-23T02:19:56.250Z,99806.91
2023-04-23T02:22:25.453Z,99806.22
2023-04-23T02:24:53.210Z,99807.06
2023-04-23T02:27:21.167Z,99805.38
2023-04-23T02:29:49.054Z,99808.22
2023-04-23T02:32:16.234Z,99800.19
2023-04-23T02:34:43.423Z,99795.50
2023-04-23T02:37:10.624Z,99802.31
2023-04-23T02:39:39.355Z,99796.53
2023-04-23T02:42:06.582Z,99808.22
2023-04-23T02:44:33.504Z,99789.59
2023-04-23T02:47:01.301Z,99789.50
2023-04-23T02:49:28.207Z,99797.94
2023-04-23T02:51:55.149Z,99792.72
2023-04-23T02:54:22.046Z,99783.84
2023-04-23T02:56:49.285Z,99784.00
2023-04-23T02:59:16.247Z,99787.81
2023-04-23T03:01:43.098Z,99790.63
2023-04-23T03:04:12.559Z,99788.63
2023-04-23T03:06:39.517Z,99795.16
2023-04-23T03:09:06.846Z,99796.00
2023-04-23T03:11:33.886Z,99787.00
2023-04-23T03:14:01.855Z,99782.66
2023-04-23T03:16:30.160Z,99776.78
2023-04-23T03:18:57.165Z,99787.25
2023-04-23T03:21:24.176Z,99774.81
2023-04-23T03:23:50.988Z,99777.81
2023-04-23T03:26:17.802Z,99776.78
2023-04-23T03:28:44.709Z,99795.25
2023-04-23T03:31:11.737Z,99781.47
2023-04-23T03:33:38.737Z,99772.47
2023-04-23T03:36:05.861Z,99764.91
2023-04-23T03:38:33.497Z,99774.28
2023-04-23T03:41:02.206Z,99773.09
2023-04-23T03:43:29.091Z,99782.03
2023-04-23T03:46:16.491Z,99778.88
2023-04-23T03:48:43.311Z,99782.66
2023-04-23T03:51:16.989Z,99781.22
2023-04-23T03:53:47.040Z,99779.78
2023-04-23T03:56:39.611Z,99778.88
2023-04-23T03:59:18.913Z,99782.38
2023-04-23T04:01:51.054Z,99780.19
2023-04-23T04:04:18.821Z,99771.16
2023-04-23T04:06:46.165Z,99774.00
2023-04-23T04:09:12.983Z,99774.53
2023-04-23T04:11:41.216Z,99770.03
2023-04-23T04:14:09.121Z,99766.34
2023-04-23T04:16:36.101Z,99764.38
2023-04-23T04:19:03.660Z,99767.03
2023-04-23T04:21:30.460Z,99765.06
2023-04-23T04:23:57.256Z,99765.06
2023-04-23T04:26:24.134Z,99758.88
2023-04-23T04:28:51.667Z,99750.00
2023-04-23T04:31:20.684Z,99753.50
2023-04-23T04:33:48.148Z,99759.00
2023-04-23T04:36:14.877Z,99751.00
2023-04-23T04:38:41.970Z,99750.75
2023-04-23T04:41:08.700Z,99757.38
2023-04-23T04:43:35.510Z,99754.31
2023-04-23T04:46:02.289Z,99759.81
2023-04-23T04:48:29.055Z,99758.94
2023-04-23T04:50:55.866Z,99756.66
2023-04-23T04:53:22.685Z,99761.38
2023-04-23T04:55:49.653Z,99763.78
2023-04-23T04:58:16.515Z,99771.75
2023-04-23T05:00:43.534Z,99787.22
2023-04-23T05:03:12.592Z,99785.47
2023-04-23T05:05:40.949Z,99784.63
2023-04-23T05:08:08.838Z,99788.44
2023-04-23T05:10:37.393Z,99783.91
2023-04-23T05:13:04.228Z,99781.78
2023-04-23T05:15:31.000Z,99781.13
2023-04-23T05:17:57.763Z,99777.31
2023-04-23T05:20:24.605Z,99779.34
2023-04-23T05:22:51.526Z,99785.03
2023-04-23T05:25:18.254Z,99778.44
2023-04-23T05:27:45.041Z,99777.34
2023-04-23T05:30:12.561Z,99781.72
2023-04-23T05:32:39.757Z,99778.31
2023-04-23T05:35:07.335Z,99777.19
2023-04-23T05:37:35.225Z,99785.78
2023-04-23T05:40:02.950Z,99788.28
2023-04-23T05:42:32.329Z,99789.50
2023-04-23T05:44:59.164Z,99787.22
2023-04-23T05:47:25.977Z,99794.81
2023-04-23T05:49:52.927Z,99791.56
2023-04-23T05:52:19.767Z,99799.59
2023-04-23T05:54:46.619Z,99794.75
2023-04-23T05:57:13.552Z,99795.97
2023-04-23T05:59:40.354Z,99798.38
2023-04-23T06:02:08.633Z,99799.91
2023-04-23T06:04:36.637Z,99800.88
2023-04-23T06:07:04.284Z,99809.75
2023-04-23T06:09:31.103Z,99795.09
2023-04-23T06:11:57.953Z,99794.25
2023-04-23T06:14:24.707Z,99793.81
2023-04-23T06:16:51.503Z,99803.38
2023-04-23T06:19:18.349Z,99790.66
2023-04-23T06:21:45.161Z,99793.25
2023-04-23T06:24:11.970Z,99805.06
2023-04-23T06:26:39.180Z,99798.88
2023-04-23T06:29:12.829Z,99809.44
2023-04-23T06:31:55.431Z,99808.94
2023-04-23T06:34:22.305Z,99799.16
2023-04-23T06:36:50.348Z,99801.84
2023-04-23T06:39:17.208Z,99792.63
2023-04-23T06:41:44.052Z,99805.81
2023-04-23T06:44:32.286Z,99801.59
2023-04-23T06:46:59.087Z,99798.59
2023-04-23T06:49:26.971Z,99791.50
2023-04-23T06:51:54.535Z,99802.28
2023-04-23T06:54:22.676Z,99807.25
2023-04-23T06:56:49.563Z,99797.84
2023-04-23T06:59:16.309Z,99804.34
2023-04-23T07:01:48.805Z,99806.97
2023-04-23T07:04:16.101Z,99802.66
2023-04-23T07:06:42.931Z,99803.53
2023-04-23T07:09:09.974Z,99801.34
2023-04-23T07:11:37.279Z,99806.25
2023-04-23T07:14:04.204Z,99801.72
2023-04-23T07:16:33.768Z,99809.88
2023-04-23T07:19:03.447Z,99798.38
2023-04-23T07:21:30.396Z,99811.34
2023-04-23T07:23:58.404Z,99810.03
2023-04-23T07:26:25.825Z,99817.63
2023-04-23T07:28:52.960Z,99815.59
2023-04-23T07:31:20.971Z,99820.78
2023-04-23T07:33:48.017Z,99822.41
2023-04-23T07:36:14.906Z,99823.66
2023-04-23T07:38:42.020Z,99827.78
2023-04-23T07:41:08.964Z,99828.94
2023-04-23T07:43:35.771Z,99829.97
2023-04-23T07:46:02.752Z,99829.06
2023-04-23T07:48:29.586Z,99826.25
2023-04-23T07:50:56.801Z,99831.59
2023-04-23T07:53:23.662Z,99843.59
2023-04-23T07:55:50.594Z,99842.44
2023-04-23T07:58:17.555Z,99835.94
2023-04-23T08:00:44.402Z,99833.13
2023-04-23T08:03:11.312Z,99842.38
2023-04-23T08:05:39.386Z,99837.78
2023-04-23T08:08:06.287Z,99841.03
2023-04-23T08:10:33.106Z,99840.16
2023-04-23T08:13:00.001Z,99839.72
2023-04-23T08:15:27.128Z,99849.88
2023-04-23T08:17:53.949Z,99841.56
2023-04-23T08:20:20.886Z,99839.56
2023-04-23T08:22:47.720Z,99842.09
2023-04-23T08:25:14.590Z,99848.31
2023-04-23T08:27:44.163Z,99844.47
2023-04-23T08:30:11.299Z,99853.94
2023-04-23T08:32:39.899Z,99841.81
2023-04-23T08:35:08.286Z,99843.34
2023-04-23T08:37:35.204Z,99842.09
2023-04-23T08:40:02.098Z,99844.75
2023-04-23T08:42:43.132Z,99845.75
2023-04-23T08:45:10.919Z,99851.66
2023-04-23T08:47:40.815Z,99847.16
2023-04-23T08:50:07.974Z,99851.41
2023-04-23T08:52:36.616Z,99841.66
2023-04-23T08:55:05.380Z,99844.16
2023-04-23T08:57:32.285Z,99836.69
2023-04-23T09:00:01.184Z,99842.72
2023-04-23T09:02:28.463Z,99842.47
2023-04-23T09:04:56.396Z,99842.50
2023-04-23T09:07:23.490Z,99850.38
2023-04-23T09:09:50.374Z,99848.88
2023-04-23T09:12:17.238Z,99845.88
2023-04-23T09:14:44.561Z,99848.00
2023-04-23T09:17:11.633Z,99851.38
2023-04-23T09:19:39.911Z,99844.41
2023-04-23T09:22:07.995Z,99838.03
2023-04-23T09:24:35.005Z,99848.94
2023-04-23T09:27:03.014Z,99857.75
2023-04-23T09:29:31.286Z,99845.94
2023-04-23T09:32:09.993Z,99848.66
2023-04-23T09:34:40.302Z,99853.47
2023-04-23T09:37:11.253Z,99850.16
2023-04-23T09:39:39.676Z,99853.97
2023-04-23T09:42:08.654Z,99855.13
2023-04-23T09:44:35.558Z,99858.78
2023-04-23T09:47:09.966Z,99863.84
2023-04-23T09:49:50.044Z,99863.59
2023-04-23T09:52:18.058Z,99859.00
2023-04-23T09:54:47.982Z,99858.56
2023-04-23T09:57:15.044Z,99864.59
2023-04-23T09:59:48.933Z,99872.38
2023-04-23T10:02:20.274Z,99877.56
2023-04-23T10:04:54.588Z,99886.56
2023-04-23T10:07:25.418Z,99879.13
2023-04-23T10:09:52.377Z,99888.97
2023-04-23T10:12:40.996Z,99888.78
2023-04-23T10:15:07.731Z,99893.69
2023-04-23T10:17:36.766Z,99897.63
2023-04-23T10:20:04.785Z,99890.47
2023-04-23T10:22:33.870Z,99889.91
2023-04-23T10:25:06.496Z,99899.75
2023-04-23T10:27:44.562Z,99902.53
2023-04-23T10:30:19.130Z,99905.66
2023-04-23T10:32:48.848Z,99912.38
2023-04-23T10:35:15.958Z,99902.53
2023-04-23T10:37:44.942Z,99907.31
2023-04-23T10:40:22.249Z,99909.72
2023-04-23T10:42:49.831Z,99905.66
2023-04-23T10:47:50.190Z,99915.50
2023-04-23T10:50:28.709Z,99908.88
2023-04-23T10:52:57.855Z,99904.31
2023-04-23T10:55:27.210Z,99903.44
2023-04-23T10:58:04.451Z,99900.53
2023-04-23T11:00:43.612Z,99910.53
2023-04-23T11:03:29.480Z,99899.28
2023-04-23T11:05:56.517Z,99894.31
2023-04-23T11:08:23.410Z,99901.75
2023-04-23T11:10:58.528Z,99900.22
2023-04-23T11:13:27.012Z,99907.63
2023-04-23T11:16:16.802Z,99897.75
2023-04-23T11:19:04.009Z,99887.97
2023-04-23T11:22:08.505Z,99900.75
2023-04-23T11:24:43.565Z,99891.66
2023-04-23T11:27:12.768Z,99899.81
2023-04-23T11:29:41.236Z,99906.28
2023-04-23T11:32:13.123Z,99894.72
2023-04-23T11:34:41.881Z,99910.16
2023-04-23T11:37:11.168Z,99908.38
2023-04-23T11:39:39.099Z,99904.41
2023-04-23T11:42:10.382Z,99908.72
2023-04-23T11:44:44.774Z,99908.97
2023-04-23T11:47:13.186Z,99911.81
2023-04-23T11:49:42.964Z,99910.53
2023-04-23T11:52:11.283Z,99915.66
2023-04-23T11:54:41.087Z,99910.19
2023-04-23T11:57:08.681Z,99918.34
2023-04-23T11:59:35.594Z,99926.25
2023-04-23T12:02:02.436Z,99916.09
2023-04-23T12:04:31.141Z,99913.69
2023-04-23T12:06:59.344Z,99925.22
2023-04-23T12:09:27.985Z,99914.38
2023-04-23T12:11:56.437Z,99921.94
2023-04-23T12:14:31.366Z,99920.81
2023-04-23T12:16:59.652Z,99919.31
2023-04-23T12:19:28.683Z,99909.81
2023-04-23T12:21:56.528Z,99915.31
2023-04-23T12:24:28.138Z,99928.75
2023-04-23T12:26:58.673Z,99928.50
2023-04-23T12:29:26.374Z,99930.88
2023-04-23T12:31:54.161Z,99925.50
2023-04-23T12:34:21.738Z,99925.00
2023-04-23T12:36:52.860Z,99930.75
2023-04-23T12:39:30.077Z,99939.28
2023-04-23T12:42:00.264Z,99928.84
2023-04-23T12:44:27.626Z,99926.59
2023-04-23T12:47:05.128Z,99927.97
2023-04-23T12:49:33.167Z,99937.84
2023-04-23T12:52:01.820Z,99946.19
2023-04-23T12:54:30.136Z,99938.88
2023-04-23T12:56:57.554Z,99933.50
2023-04-23T12:59:24.393Z,99927.84
2023-04-23T13:01:51.625Z,99922.06
2023-04-23T13:04:18.705Z,99937.06
2023-04-23T13:06:45.600Z,99927.47
2023-04-23T13:09:12.496Z,99922.47
2023-04-23T13:11:39.958Z,99917.78
2023-04-23T13:14:07.744Z,99919.28
2023-04-23T13:16:34.673Z,99913.66
2023-04-23T13:19:01.689Z,99916.88
2023-04-23T13:21:28.602Z,99916.28
2023-04-23T13:23:57.059Z,99918.50
2023-04-23T13:26:23.990Z,99913.22
2023-04-23T13:28:50.983Z,99906.50
2023-04-23T13:31:18.148Z,99919.44
2023-04-23T13:33:45.076Z,99909.69
2023-04-23T13:36:11.911Z,99911.56
2023-04-23T13:38:38.768Z,99905.53
2023-04-23T13:41:05.736Z,99900.16
2023-04-23T13:43:32.595Z,99906.44
2023-04-23T13:46:01.327Z,99893.81
2023-04-23T13:48:31.604Z,99889.66
2023-04-23T13:50:59.206Z,99888.19
2023-04-23T13:53:26.664Z,99882.88
2023-04-23T13:55:57.072Z,99868.59
2023-04-23T13:58:24.164Z,99874.28
2023-04-23T14:00:52.028Z,99881.38
2023-04-23T14:03:20.442Z,99870.94
2023-04-23T14:05:47.737Z,99873.59
2023-04-23T14:08:14.511Z,99873.88
2023-04-23T14:10:43.718Z,99872.28
2023-04-23T14:13:11.058Z,99874.34
2023-04-23T14:15:38.074Z,99867.28
2023-04-23T14:18:05.912Z,99860.84
2023-04-23T14:20:33.028Z,99870.69
2023-04-23T14:23:06.514Z,99869.78
2023-04-23T14:25:41.109Z,99861.69
2023-04-23T14:28:35.998Z,99864.38
2023-04-23T14:31:03.009Z,99851.44
2023-04-23T14:33:29.845Z,99854.13
2023-04-23T14:35:57.221Z,99849.41
2023-04-23T14:38:24.421Z,99846.44
2023-04-23T14:40:51.376Z,99839.03
2023-04-23T14:43:18.240Z,99843.56
2023-04-23T14:45:45.259Z,99835.72
2023-04-23T14:48:12.160Z,99838.66
2023-04-23T14:50:38.970Z,99835.25
2023-04-23T14:53:07.853Z,99831.81
2023-04-23T14:55:34.757Z,99827.94
2023-04-23T14:58:01.813Z,99825.16
2023-04-23T15:00:28.761Z,99832.47
2023-04-23T15:02:56.926Z,99819.56
2023-04-23T15:05:24.164Z,99817.88
2023-04-23T15:07:52.076Z,99816.19
2023-04-23T15:10:21.073Z,99823.50
2023-04-23T15:12:56.951Z,99817.25
2023-04-23T15:15:48.002Z,99823.25
2023-04-23T15:18:17.060Z,99813.00
2023-04-23T15:20:44.538Z,99821.00
2023-04-23T15:23:13.995Z,99817.50
2023-04-23T15:25:41.171Z,99814.88
2023-04-23T15:28:08.056Z,99807.69
2023-04-23T15:30:35.104Z,99806.72
2023-04-23T15:33:02.054Z,99792.97
2023-04-23T15:35:29.042Z,99791.16
2023-04-23T15:37:55.869Z,99790.38
2023-04-23T15:40:23.000Z,99788.66
2023-04-23T15:42:50.648Z,99794.50
2023-04-23T15:45:17.658Z,99782.19
2023-04-23T15:47:44.496Z,99777.16
2023-04-23T15:50:11.701Z,99781.53
2023-04-23T15:52:39.937Z,99786.00
2023-04-23T15:55:07.425Z,99783.25
2023-04-23T15:57:34.166Z,99784.03
2023-04-23T16:00:01.477Z,99782.91
2023-04-23T16:02:38.966Z,99785.69
2023-04-23T16:05:06.118Z,99784.03
2023-04-23T16:07:33.073Z,99781.75
2023-04-23T16:09:59.903Z,99775.47
2023-04-23T16:12:26.696Z,99783.19
2023-04-23T16:14:53.888Z,99774.75
2023-04-23T16:17:20.905Z,99771.00
2023-04-23T16:19:48.259Z,99772.44
2023-04-23T16:22:16.429Z,99768.50
2023-04-23T16:24:43.362Z,99766.53
2023-04-23T16:27:11.138Z,99761.19
2023-04-23T16:29:39.024Z,99767.47
2023-04-23T16:32:07.534Z,99767.25
2023-04-23T16:34:34.531Z,99767.63
2023-04-23T16:37:01.348Z,99765.16
2023-04-23T16:39:28.219Z,99757.78
2023-04-23T16:41:55.190Z,99757.78
2023-04-23T16:44:21.953Z,99744.63
2023-04-23T16:46:48.738Z,99747.47
2023-04-23T16:49:15.610Z,99749.28
2023-04-23T16:51:42.370Z,99744.13
2023-04-23T16:54:10.271Z,99746.34
2023-04-23T16:56:37.629Z,99752.94
2023-04-23T16:59:05.035Z,99741.78
2023-04-23T17:01:32.008Z,99730.31
2023-04-23T17:03:59.092Z,99724.66
2023-04-23T17:06:29.415Z,99739.69
2023-04-23T17:09:02.026Z,99726.50
2023-04-23T17:11:30.119Z,99738.50
2023-04-23T17:14:00.033Z,99732.22
2023-04-23T17:16:27.432Z,99737.06
2023-04-23T17:18:54.834Z,99724.50
2023-04-23T17:21:21.694Z,99724.25
2023-04-23T17:23:48.508Z,99725.69
2023-04-23T17:26:15.702Z,99710.78
2023-04-23T17:28:42.749Z,99715.41
2023-04-23T17:31:09.620Z,99711.25
2023-04-23T17:33:36.561Z,99713.75
2023-04-23T17:36:03.509Z,99711.91
2023-04-23T17:38:30.697Z,99709.50
2023-04-23T17:40:58.874Z,99711.19
2023-04-23T17:49:58.947Z,99708.97
2023-04-23T17:52:25.883Z,99706.84
2023-04-23T17:54:52.795Z,99700.13
2023-04-23T17:57:19.934Z,99713.22
2023-04-23T17:59:46.861Z,99717.44
2023-04-23T18:02:13.757Z,99719.28
2023-04-23T18:04:40.838Z,99716.25
2023-04-23T18:07:07.557Z,99723.94
2023-04-23T18:09:34.341Z,99713.19
2023-04-23T18:12:01.184Z,99716.97
2023-04-23T18:14:27.976Z,99717.69
2023-04-23T18:16:54.886Z,99722.47
2023-04-23T18:19:21.880Z,99721.97
2023-04-23T18:21:50.072Z,99724.34
2023-04-23T18:24:18.821Z,99721.84
2023-04-23T18:26:45.684Z,99727.88
2023-04-23T18:29:12.689Z,99731.09
2023-04-23T18:31:39.414Z,99738.81
2023-04-23T18:34:09.967Z,99735.09
2023-04-23T18:36:38.034Z,99736.75
2023-04-23T18:39:05.034Z,99732.19
2023-04-23T18:41:31.854Z,99740.03
2023-04-23T18:44:00.317Z,99742.00
2023-04-23T18:46:28.360Z,99743.97
2023-04-23T18:49:19.222Z,99745.94
2023-04-23T18:51:55.482Z,99753.09
2023-04-23T18:54:26.138Z,99756.72
2023-04-23T18:56:53.586Z,99750.47
2023-04-23T18:59:20.491Z,99752.09
2023-04-23T19:01:50.450Z,99757.06
2023-04-23T19:04:17.527Z,99752.47
2023-04-23T19:06:44.716Z,99748.63
2023-04-23T19:09:11.697Z,99737.50
2023-04-23T19:11:38.911Z,99746.16
2023-04-23T19:14:05.821Z,99738.22
2023-04-23T19:16:32.829Z,99740.50
2023-04-23T19:18:59.702Z,99738.97
2023-04-23T19:21:26.663Z,99735.09
2023-04-23T19:23:54.327Z,99732.03
2023-04-23T19:26:21.235Z,99739.38
2023-04-23T19:28:48.029Z,99737.00
2023-04-23T19:31:15.181Z,99735.75
2023-04-23T19:33:45.543Z,99744.25
2023-04-23T19:36:12.383Z,99734.00
2023-04-23T19:38:39.307Z,99725.88
2023-04-23T19:41:07.295Z,99725.88
2023-04-23T19:43:34.440Z,99725.81
2023-04-23T19:46:01.242Z,99722.72
2023-04-23T19:48:28.505Z,99726.28
2023-04-23T19:50:55.542Z,99726.56
2023-04-23T19:53:22.322Z,99726.88
2023-04-23T19:55:49.340Z,99722.13
2023-04-23T19:58:17.887Z,99716.91
2023-04-23T20:00:46.059Z,99711.00
2023-04-23T20:03:13.238Z,99720.06
2023-04-23T20:05:42.521Z,99712.63
2023-04-23T20:08:15.561Z,99711.25
2023-04-23T20:10:43.326Z,99709.56
2023-04-23T20:13:10.102Z,99710.41
2023-04-23T20:15:36.969Z,99697.78
2023-04-23T20:18:04.021Z,99698.53
2023-04-23T20:20:30.814Z,99700.09
2023-04-23T20:22:57.685Z,99697.56
2023-04-23T20:25:25.979Z,99699.03
2023-04-23T20:27:53.182Z,99693.47
2023-04-23T20:30:20.028Z,99689.53
2023-04-23T20:32:46.945Z,99685.84
2023-04-23T20:35:13.999Z,99689.38
2023-04-23T20:37:41.026Z,99689.78
2023-04-23T20:40:08.504Z,99692.25
2023-04-23T20:42:39.354Z,99692.44
2023-04-23T20:45:09.730Z,99684.13
2023-04-23T20:47:37.005Z,99686.50
2023-04-23T20:50:04.163Z,99681.44
2023-04-23T20:52:31.090Z,99678.91
2023-04-23T20:54:57.902Z,99671.16
2023-04-23T20:57:24.841Z,99669.91
2023-04-23T20:59:51.772Z,99668.50
2023-04-23T21:02:19.050Z,99665.16
2023-04-23T21:04:45.921Z,99667.69
2023-04-23T21:07:12.751Z,99662.91
2023-04-23T21:09:39.691Z,99658.75
2023-04-23T21:12:07.310Z,99659.63
2023-04-23T21:14:34.518Z,99654.69
2023-04-23T21:17:01.986Z,99655.09
2023-04-23T21:19:28.982Z,99645.94
2023-04-23T21:21:55.789Z,99646.09
2023-04-23T21:24:22.589Z,99635.91
2023-04-23T21:26:49.471Z,99633.16
2023-04-23T21:29:16.246Z,99633.47
2023-04-23T21:31:46.481Z,99626.31
2023-04-23T21:34:16.483Z,99626.59
2023-04-23T21:36:44.945Z,99622.94
2023-04-23T21:39:13.281Z,99621.06
2023-04-23T21:41:40.413Z,99618.00
2023-04-23T21:44:07.445Z,99611.53
2023-04-23T21:46:34.261Z,99607.56
2023-04-23T21:49:01.066Z,99601.09
2023-04-23T21:51:28.293Z,99599.53
2023-04-23T21:53:55.048Z,99592.22
2023-04-23T21:56:21.918Z,99586.50
2023-04-23T21:58:48.842Z,99584.59
2023-04-23T22:01:16.674Z,99584.00
2023-04-23T22:03:46.952Z,99586.25
2023-04-23T22:06:15.855Z,99581.94
2023-04-23T22:08:44.886Z,99580.81
2023-04-23T22:11:12.136Z,99585.94
2023-04-23T22:13:39.160Z,99589.03
2023-04-23T22:16:10.834Z,99589.03
2023-04-23T22:18:43.516Z,99591.75
2023-04-23T22:21:10.390Z,99589.78
2023-04-23T22:23:37.213Z,99599.91
2023-04-23T22:26:04.222Z,99600.88
2023-04-23T22:28:31.096Z,99600.75
2023-04-23T22:30:58.018Z,99609.47
2023-04-23T22:33:26.723Z,99606.50
2023-04-23T22:35:53.588Z,99612.97
2023-04-23T22:38:20.480Z,99613.53
2023-04-23T22:40:47.292Z,99603.16
2023-04-23T22:43:14.116Z,99606.78
2023-04-23T22:45:40.924Z,99591.75
2023-04-23T22:48:07.814Z,99597.25
2023-04-23T22:50:34.577Z,99592.31
2023-04-23T22:53:01.463Z,99584.72
2023-04-23T22:55:28.257Z,99582.28
2023-04-23T22:57:55.026Z,99585.69
2023-04-23T23:00:22.068Z,99587.22
2023-04-23T23:02:48.990Z,99581.72
2023-04-23T23:05:15.823Z,99577.22
2023-04-23T23:07:42.582Z,99574.34
2023-04-23T23:10:09.865Z,99565.03
2023-04-23T23:12:37.285Z,99558.38
2023-04-23T23:15:04.353Z,99547.25
2023-04-23T23:17:31.167Z,99547.13
2023-04-23T23:19:57.934Z,99550.91
2023-04-23T23:22:24.920Z,99550.50
2023-04-23T23:24:51.711Z,99541.00
2023-04-23T23:27:18.547Z,99538.63
2023-04-23T23:29:45.468Z,99538.06
2023-04-23T23:32:12.291Z,99528.47
2023-04-23T23:34:39.085Z,99526.78
2023-04-23T23:37:05.965Z,99513.69
2023-04-23T23:39:32.744Z,99514.41
2023-04-23T23:41:59.944Z,99508.50
2023-04-23T23:44:26.820Z,99508.25
2023-04-23T23:46:53.617Z,99508.25
2023-04-23T23:49:20.898Z,99506.00
2023-04-23T23:51:47.815Z,99497.69
2023-04-23T23:54:14.779Z,99502.91
2023-04-23T23:56:41.768Z,99493.88
2023-04-23T23:59:08.948Z,99487.19
